createdAt,value
2024-04-01T00:01:33.958Z,991.67
2024-04-01T00:03:19.141Z,991.6
2024-04-01T00:05:03.970Z,991.59
2024-04-01T00:06:48.971Z,991.57
2024-04-01T00:08:33.998Z,991.66
2024-04-01T00:10:18.971Z,991.66
2024-04-01T00:12:04.016Z,991.85
2024-04-01T00:13:49.005Z,991.79
2024-04-01T00:15:34.018Z,991.82
2024-04-01T00:17:18.989Z,991.74
2024-04-01T00:19:04.000Z,991.7
2024-04-01T00:20:48.982Z,991.53
2024-04-01T00:22:33.981Z,991.58
2024-04-01T00:24:19.009Z,991.44
2024-04-01T00:26:04.014Z,991.36
2024-04-01T00:27:49.005Z,991.46
2024-04-01T00:29:34.036Z,991.45
2024-04-01T00:31:19.074Z,991.36
2024-04-01T00:33:04.006Z,991.28
2024-04-01T00:34:49.026Z,991.3
2024-04-01T00:36:34.044Z,991.17
2024-04-01T00:38:19.011Z,991
2024-04-01T00:40:04.006Z,991.02
2024-04-01T00:41:49.036Z,991.07
2024-04-01T00:43:34.013Z,991
2024-04-01T00:45:19.018Z,991.11
2024-04-01T00:47:04.091Z,991.03
2024-04-01T00:48:49.028Z,991.14
2024-04-01T00:50:34.038Z,991.08
2024-04-01T00:52:19.062Z,991.24
2024-04-01T00:54:04.046Z,991.16
2024-04-01T00:55:49.023Z,991.24
2024-04-01T00:57:34.044Z,991.14
2024-04-01T00:59:19.034Z,991.01
2024-04-01T01:01:04.021Z,991.01
2024-04-01T01:02:49.076Z,990.97
2024-04-01T01:04:34.059Z,991.08
2024-04-01T01:06:19.043Z,991.06
2024-04-01T01:08:04.683Z,991
2024-04-01T01:09:49.068Z,991.17
2024-04-01T01:11:34.073Z,991.04
2024-04-01T01:13:19.073Z,991.08
2024-04-01T01:15:04.060Z,991.04
2024-04-01T01:16:49.058Z,991.01
2024-04-01T01:18:34.059Z,991
2024-04-01T01:20:19.055Z,991
2024-04-01T01:22:04.063Z,990.99
2024-04-01T01:23:49.082Z,990.98
2024-04-01T01:25:34.070Z,991.08
2024-04-01T01:27:19.091Z,990.97
2024-04-01T01:29:04.090Z,990.93
2024-04-01T01:30:49.104Z,991.07
2024-04-01T01:32:34.096Z,990.9
2024-04-01T01:34:19.131Z,990.88
2024-04-01T01:36:04.106Z,990.96
2024-04-01T01:37:49.076Z,990.92
2024-04-01T01:39:34.085Z,990.97
2024-04-01T01:41:19.098Z,990.8
2024-04-01T01:43:04.108Z,990.84
2024-04-01T01:44:49.088Z,990.82
2024-04-01T01:46:34.100Z,990.79
2024-04-01T01:48:19.120Z,990.84
2024-04-01T01:50:04.145Z,990.76
2024-04-01T01:51:49.123Z,990.8
2024-04-01T01:53:34.146Z,990.77
2024-04-01T01:55:19.118Z,990.65
2024-04-01T01:57:04.147Z,990.64
2024-04-01T01:58:49.131Z,990.71
2024-04-01T02:00:34.106Z,990.75
2024-04-01T02:02:19.131Z,990.7
2024-04-01T02:04:04.119Z,990.69
2024-04-01T02:05:49.121Z,990.68
2024-04-01T02:07:34.141Z,990.67
2024-04-01T02:09:19.132Z,990.61
2024-04-01T02:11:04.141Z,990.58
2024-04-01T02:12:49.146Z,990.5
2024-04-01T02:14:34.160Z,990.51
2024-04-01T02:16:19.146Z,990.52
2024-04-01T02:18:04.143Z,990.41
2024-04-01T02:19:49.144Z,990.38
2024-04-01T02:21:34.138Z,990.41
2024-04-01T02:23:19.113Z,990.34
2024-04-01T02:25:04.146Z,990.33
2024-04-01T02:26:49.136Z,990.29
2024-04-01T02:28:34.154Z,990.4
2024-04-01T02:30:19.185Z,990.36
2024-04-01T02:32:04.214Z,990.32
2024-04-01T02:33:49.138Z,990.37
2024-04-01T02:35:34.160Z,990.41
2024-04-01T02:37:19.214Z,990.53
2024-04-01T02:39:04.183Z,990.56
2024-04-01T02:40:49.151Z,990.42
2024-04-01T02:42:34.198Z,990.5
2024-04-01T02:44:19.162Z,990.5
2024-04-01T02:46:04.189Z,990.58
2024-04-01T02:47:49.186Z,990.52
2024-04-01T02:49:34.175Z,990.52
2024-04-01T02:51:19.183Z,990.54
2024-04-01T02:53:04.205Z,990.61
2024-04-01T02:54:49.198Z,990.57
2024-04-01T02:56:34.203Z,990.62
2024-04-01T02:58:19.211Z,990.57
2024-04-01T03:00:04.190Z,990.65
2024-04-01T03:01:49.202Z,990.58
2024-04-01T03:03:34.173Z,990.48
2024-04-01T03:05:19.208Z,990.51
2024-04-01T03:07:04.205Z,990.41
2024-04-01T03:08:49.208Z,990.33
2024-04-01T03:10:34.206Z,990.27
2024-04-01T03:12:19.196Z,990.3
2024-04-01T03:14:04.203Z,990.25
2024-04-01T03:15:49.239Z,990.29
2024-04-01T03:17:34.241Z,990.28
2024-04-01T03:19:19.229Z,990.2
2024-04-01T03:21:04.228Z,990.34
2024-04-01T03:22:49.205Z,990.3
2024-04-01T03:24:34.248Z,990.18
2024-04-01T03:26:19.213Z,990.2
2024-04-01T03:28:04.215Z,990.13
2024-04-01T03:29:49.226Z,990.15
2024-04-01T03:31:34.211Z,990.13
2024-04-01T03:33:19.216Z,990.12
2024-04-01T03:35:04.245Z,990.28
2024-04-01T03:36:49.219Z,990.16
2024-04-01T03:38:34.552Z,990.16
2024-04-01T03:40:19.245Z,990.14
2024-04-01T03:42:04.228Z,990.11
2024-04-01T03:43:49.215Z,990.15
2024-04-01T03:45:34.261Z,990.11
2024-04-01T03:47:19.235Z,990.14
2024-04-01T03:49:04.229Z,990.1
2024-04-01T03:50:49.231Z,990.18
2024-04-01T03:52:34.257Z,990.23
2024-04-01T03:54:19.262Z,990.15
2024-04-01T03:56:04.286Z,990.18
2024-04-01T03:57:49.264Z,990.26
2024-04-01T03:59:34.267Z,990.13
2024-04-01T04:01:19.270Z,990.05
2024-04-01T04:03:04.265Z,990.12
2024-04-01T04:04:49.272Z,990.09
2024-04-01T04:06:34.257Z,990.18
2024-04-01T04:08:19.259Z,990.31
2024-04-01T04:10:04.279Z,990.21
2024-04-01T04:11:49.280Z,990.23
2024-04-01T04:13:34.270Z,990.26
2024-04-01T04:15:19.284Z,990.24
2024-04-01T04:17:04.272Z,990.17
2024-04-01T04:18:49.275Z,990.24
2024-04-01T04:20:34.287Z,990.24
2024-04-01T04:22:19.290Z,990.29
2024-04-01T04:24:04.283Z,990.19
2024-04-01T04:25:49.321Z,990.16
2024-04-01T04:27:34.312Z,990.29
2024-04-01T04:29:19.298Z,990.21
2024-04-01T04:31:04.335Z,990.24
2024-04-01T04:32:49.294Z,990.3
2024-04-01T04:34:34.299Z,990.44
2024-04-01T04:36:19.302Z,990.4
2024-04-01T04:38:04.793Z,990.33
2024-04-01T04:39:49.351Z,990.38
2024-04-01T04:41:34.335Z,990.33
2024-04-01T04:43:19.346Z,990.25
2024-04-01T04:45:04.312Z,990.34
2024-04-01T04:46:49.322Z,990.29
2024-04-01T04:48:34.332Z,990.41
2024-04-01T04:50:19.314Z,990.37
2024-04-01T04:52:04.348Z,990.31
2024-04-01T04:53:49.333Z,990.34
2024-04-01T04:55:34.679Z,990.39
2024-04-01T04:57:19.325Z,990.36
2024-04-01T04:59:04.352Z,990.39
2024-04-01T05:00:49.336Z,990.49
2024-04-01T05:02:34.356Z,990.57
2024-04-01T05:04:19.362Z,990.55
2024-04-01T05:06:04.339Z,990.51
2024-04-01T05:07:49.391Z,990.33
2024-04-01T05:09:34.343Z,990.44
2024-04-01T05:11:19.358Z,990.35
2024-04-01T05:13:04.369Z,990.49
2024-04-01T05:14:49.404Z,990.47
2024-04-01T05:16:34.353Z,990.55
2024-04-01T05:18:19.992Z,990.47
2024-04-01T05:20:04.395Z,990.42
2024-04-01T05:21:49.367Z,990.5
2024-04-01T05:23:34.352Z,990.42
2024-04-01T05:25:19.418Z,990.5
2024-04-01T05:27:04.361Z,990.53
2024-04-01T05:28:49.422Z,990.48
2024-04-01T05:30:34.393Z,990.55
2024-04-01T05:32:19.399Z,990.58
2024-04-01T05:34:04.391Z,990.52
2024-04-01T05:35:49.387Z,990.61
2024-04-01T05:37:34.412Z,990.54
2024-04-01T05:39:19.396Z,990.62
2024-04-01T05:41:04.419Z,990.69
2024-04-01T05:42:49.404Z,990.6
2024-04-01T05:44:34.422Z,990.75
2024-04-01T05:46:19.454Z,990.74
2024-04-01T05:48:04.434Z,990.72
2024-04-01T05:49:49.438Z,990.74
2024-04-01T05:51:34.723Z,990.71
2024-04-01T05:53:19.431Z,990.88
2024-04-01T05:55:04.406Z,990.81
2024-04-01T05:56:49.423Z,990.89
2024-04-01T05:58:34.499Z,990.81
2024-04-01T06:00:19.486Z,990.96
2024-04-01T06:02:04.448Z,990.89
2024-04-01T06:03:49.417Z,990.94
2024-04-01T06:05:34.440Z,990.94
2024-04-01T06:07:19.450Z,990.92
2024-04-01T06:09:04.460Z,990.96
2024-04-01T06:10:50.088Z,990.87
2024-04-01T06:12:34.447Z,990.98
2024-04-01T06:14:19.461Z,990.95
2024-04-01T06:16:04.468Z,990.95
2024-04-01T06:17:49.553Z,991.04
2024-04-01T06:19:34.501Z,990.93
2024-04-01T06:21:19.431Z,990.94
2024-04-01T06:23:04.473Z,991.05
2024-04-01T06:24:49.502Z,991.05
2024-04-01T06:26:34.465Z,991.07
2024-04-01T06:28:19.497Z,991.09
2024-04-01T06:30:04.465Z,991.08
2024-04-01T06:31:49.487Z,991.1
2024-04-01T06:33:34.571Z,991.07
2024-04-01T06:35:19.516Z,990.96
2024-04-01T06:37:04.482Z,990.98
2024-04-01T06:38:49.461Z,991.1
2024-04-01T06:40:34.509Z,991.08
2024-04-01T06:42:19.474Z,991.1
2024-04-01T06:44:04.499Z,991.16
2024-04-01T06:45:49.484Z,991.02
2024-04-01T06:47:34.522Z,991.14
2024-04-01T06:49:19.505Z,991.08
2024-04-01T06:51:04.509Z,990.97
2024-04-01T06:52:49.500Z,991.16
2024-04-01T06:54:34.500Z,991.11
2024-04-01T06:56:19.509Z,991.12
2024-04-01T06:58:04.527Z,991.17
2024-04-01T06:59:49.496Z,991.13
2024-04-01T07:01:34.581Z,991.05
2024-04-01T07:03:19.515Z,991.15
2024-04-01T07:05:04.527Z,991.14
2024-04-01T07:06:49.524Z,991.16
2024-04-01T07:08:34.548Z,991.15
2024-04-01T07:10:20.882Z,991.21
2024-04-01T07:12:04.544Z,991.17
2024-04-01T07:13:49.526Z,991.19
2024-04-01T07:15:34.536Z,991.31
2024-04-01T07:17:19.539Z,991.35
2024-04-01T07:19:04.569Z,991.31
2024-04-01T07:20:49.556Z,991.45
2024-04-01T07:22:34.577Z,991.29
2024-04-01T07:24:19.554Z,991.36
2024-04-01T07:26:04.570Z,991.5
2024-04-01T07:27:49.557Z,991.33
2024-04-01T07:29:34.549Z,991.45
2024-04-01T07:31:19.593Z,991.47
2024-04-01T07:33:04.533Z,991.5
2024-04-01T07:34:49.560Z,991.42
2024-04-01T07:36:34.559Z,991.47
2024-04-01T07:38:19.555Z,991.47
2024-04-01T07:40:04.576Z,991.45
2024-04-01T07:41:49.559Z,991.44
2024-04-01T07:43:34.620Z,991.37
2024-04-01T07:45:19.587Z,991.52
2024-04-01T07:47:04.600Z,991.49
2024-04-01T07:48:49.589Z,991.45
2024-04-01T07:50:34.582Z,991.47
2024-04-01T07:52:19.652Z,991.54
2024-04-01T07:54:04.584Z,991.49
2024-04-01T07:55:49.588Z,991.51
2024-04-01T07:57:34.584Z,991.56
2024-04-01T07:59:19.586Z,991.76
2024-04-01T08:01:04.606Z,991.78
2024-04-01T08:02:49.618Z,991.77
2024-04-01T08:04:34.632Z,991.82
2024-04-01T08:06:19.961Z,991.79
2024-04-01T08:08:04.640Z,991.65
2024-04-01T08:09:49.613Z,991.67
2024-04-01T08:11:34.614Z,991.7
2024-04-01T08:13:19.908Z,991.64
2024-04-01T08:15:04.678Z,991.81
2024-04-01T08:16:49.615Z,991.85
2024-04-01T08:18:34.633Z,991.92
2024-04-01T08:20:19.650Z,991.96
2024-04-01T08:22:04.649Z,991.93
2024-04-01T08:23:49.670Z,992.09
2024-04-01T08:25:34.667Z,992.02
2024-04-01T08:27:19.643Z,992.02
2024-04-01T08:29:04.631Z,992.08
2024-04-01T08:30:49.645Z,992.16
2024-04-01T08:32:34.637Z,992.21
2024-04-01T08:34:19.651Z,992.27
2024-04-01T08:36:04.646Z,992.41
2024-04-01T08:37:49.645Z,992.34
2024-04-01T08:39:34.685Z,992.36
2024-04-01T08:41:19.648Z,992.37
2024-04-01T08:43:04.678Z,992.45
2024-04-01T08:44:49.683Z,992.43
2024-04-01T08:46:34.678Z,992.36
2024-04-01T08:48:19.669Z,992.31
2024-04-01T08:50:04.682Z,992.31
2024-04-01T08:51:49.696Z,992.29
2024-04-01T08:53:34.687Z,992.35
2024-04-01T08:55:19.669Z,992.32
2024-04-01T08:57:04.690Z,992.36
2024-04-01T08:58:49.695Z,992.36
2024-04-01T09:00:34.682Z,992.39
2024-04-01T09:02:19.700Z,992.39
2024-04-01T09:04:04.676Z,992.44
2024-04-01T09:05:49.688Z,992.31
2024-04-01T09:07:34.708Z,992.31
2024-04-01T09:09:19.689Z,992.33
2024-04-01T09:11:04.703Z,992.26
2024-04-01T09:12:49.703Z,992.26
2024-04-01T09:14:34.693Z,992.21
2024-04-01T09:16:19.677Z,992.24
2024-04-01T09:18:04.740Z,992.36
2024-04-01T09:19:49.746Z,992.31
2024-04-01T09:21:34.707Z,992.35
2024-04-01T09:23:19.699Z,992.32
2024-04-01T09:25:04.732Z,992.46
2024-04-01T09:26:49.736Z,992.46
2024-04-01T09:28:34.717Z,992.52
2024-04-01T09:30:19.716Z,992.54
2024-04-01T09:32:04.716Z,992.73
2024-04-01T09:33:49.720Z,992.76
2024-04-01T09:35:34.731Z,992.8
2024-04-01T09:37:19.760Z,992.84
2024-04-01T09:39:04.715Z,992.85
2024-04-01T09:40:49.729Z,992.95
2024-04-01T09:42:34.734Z,992.83
2024-04-01T09:44:19.761Z,992.88
2024-04-01T09:46:05.411Z,992.91
2024-04-01T09:47:49.744Z,992.92
2024-04-01T09:49:34.751Z,992.9
2024-04-01T09:51:19.763Z,992.9
2024-04-01T09:53:04.742Z,993.06
2024-04-01T09:54:49.742Z,992.91
2024-04-01T09:56:34.784Z,992.95
2024-04-01T09:58:19.774Z,993.09
2024-04-01T10:00:04.750Z,993.13
2024-04-01T10:01:49.819Z,993.14
2024-04-01T10:03:36.777Z,993.15
2024-04-01T10:05:19.787Z,993.18
2024-04-01T10:07:05.067Z,993.17
2024-04-01T10:08:49.791Z,993.16
2024-04-01T10:10:34.787Z,993.14
2024-04-01T10:12:19.774Z,993.2
2024-04-01T10:14:04.814Z,993.19
2024-04-01T10:15:51.250Z,993.18
2024-04-01T10:17:34.784Z,993.28
2024-04-01T10:19:20.608Z,993.18
2024-04-01T10:21:04.788Z,993.21
2024-04-01T10:22:49.786Z,993.21
2024-04-01T10:24:34.804Z,993.2
2024-04-01T10:26:19.792Z,993.21
2024-04-01T10:28:04.777Z,993.07
2024-04-01T10:29:49.844Z,993.17
2024-04-01T10:31:34.788Z,993.11
2024-04-01T10:33:19.792Z,993.23
2024-04-01T10:35:08.930Z,993.24
2024-04-01T10:36:49.811Z,993.27
2024-04-01T10:38:34.811Z,993.27
2024-04-01T10:40:19.820Z,993.38
2024-04-01T10:42:04.835Z,993.38
2024-04-01T10:43:49.807Z,993.46
2024-04-01T10:45:34.861Z,993.43
2024-04-01T10:47:19.842Z,993.45
2024-04-01T10:49:04.835Z,993.51
2024-04-01T10:50:49.849Z,993.47
2024-04-01T10:52:34.862Z,993.5
2024-04-01T10:54:19.836Z,993.62
2024-04-01T10:56:04.842Z,993.5
2024-04-01T10:57:49.851Z,993.48
2024-04-01T10:59:34.855Z,993.56
2024-04-01T11:01:19.874Z,993.48
2024-04-01T11:03:04.898Z,993.58
2024-04-01T11:04:49.884Z,993.53
2024-04-01T11:06:34.847Z,993.5
2024-04-01T11:08:19.855Z,993.48
2024-04-01T11:10:04.859Z,993.5
2024-04-01T11:11:49.870Z,993.44
2024-04-01T11:13:34.888Z,993.65
2024-04-01T11:15:19.849Z,993.61
2024-04-01T11:17:04.896Z,993.61
2024-04-01T11:18:49.862Z,993.66
2024-04-01T11:20:34.869Z,993.75
2024-04-01T11:22:22.039Z,993.73
2024-04-01T11:24:05.170Z,993.77
2024-04-01T11:25:49.877Z,993.84
2024-04-01T11:27:34.868Z,993.83
2024-04-01T11:29:19.867Z,993.84
2024-04-01T11:31:04.890Z,993.81
2024-04-01T11:32:49.909Z,993.9
2024-04-01T11:34:34.879Z,993.91
2024-04-01T11:36:19.895Z,994.01
2024-04-01T11:38:04.905Z,993.82
2024-04-01T11:39:49.893Z,993.96
2024-04-01T11:41:34.909Z,993.91
2024-04-01T11:43:19.937Z,994
2024-04-01T11:45:05.927Z,994.03
2024-04-01T11:46:49.925Z,994.1
2024-04-01T11:48:34.913Z,994.03
2024-04-01T11:50:19.899Z,994.04
2024-04-01T11:52:04.953Z,993.99
2024-04-01T11:53:49.953Z,993.87
2024-04-01T11:55:34.941Z,994.08
2024-04-01T11:57:19.917Z,994.06
2024-04-01T11:59:04.970Z,994.07
2024-04-01T12:00:49.962Z,994.14
2024-04-01T12:02:34.949Z,994.19
2024-04-01T12:04:20.302Z,994.36
2024-04-01T12:06:04.946Z,994.28
2024-04-01T12:07:49.965Z,994.36
2024-04-01T12:09:34.959Z,994.41
2024-04-01T12:11:19.980Z,994.35
2024-04-01T12:13:04.936Z,994.34
2024-04-01T12:14:49.949Z,994.4
2024-04-01T12:16:34.966Z,994.51
2024-04-01T12:18:19.944Z,994.56
2024-04-01T12:20:04.974Z,994.63
2024-04-01T12:21:49.978Z,994.72
2024-04-01T12:23:34.992Z,994.8
2024-04-01T12:25:20.015Z,994.84
2024-04-01T12:27:04.988Z,994.88
2024-04-01T12:28:49.999Z,994.82
2024-04-01T12:30:36.359Z,994.83
2024-04-01T12:32:19.993Z,994.82
2024-04-01T12:34:04.979Z,994.93
2024-04-01T12:35:50.322Z,994.9
2024-04-01T12:37:35.022Z,994.86
2024-04-01T12:39:19.970Z,994.89
2024-04-01T12:41:04.977Z,995.05
2024-04-01T12:42:50.003Z,994.98
2024-04-01T12:44:34.999Z,995.13
2024-04-01T12:46:19.989Z,995.1
2024-04-01T12:48:05.061Z,995.13
2024-04-01T12:49:50.002Z,995.04
2024-04-01T12:51:35.014Z,995.19
2024-04-01T12:53:20.053Z,995.15
2024-04-01T12:55:04.989Z,995.14
2024-04-01T12:56:50.002Z,995.14
2024-04-01T12:58:35.032Z,995.19
2024-04-01T13:00:20.043Z,995.15
2024-04-01T13:02:05.029Z,995.21
2024-04-01T13:03:50.027Z,995.23
2024-04-01T13:05:35.060Z,995.17
2024-04-01T13:07:20.037Z,995.19
2024-04-01T13:09:05.087Z,995.26
2024-04-01T13:10:50.100Z,995.28
2024-04-01T13:12:35.020Z,995.29
2024-04-01T13:14:20.075Z,995.35
2024-04-01T13:16:05.090Z,995.33
2024-04-01T13:17:50.043Z,995.34
2024-04-01T13:19:35.075Z,995.32
2024-04-01T13:21:20.095Z,995.43
2024-04-01T13:23:05.171Z,995.46
2024-04-01T13:24:50.112Z,995.47
2024-04-01T13:26:35.104Z,995.43
2024-04-01T13:28:23.433Z,995.49
2024-04-01T13:30:05.043Z,995.54
2024-04-01T13:31:50.177Z,995.49
2024-04-01T13:33:35.105Z,995.5
2024-04-01T13:35:20.081Z,995.49
2024-04-01T13:37:05.065Z,995.68
2024-04-01T13:38:50.114Z,995.63
2024-04-01T13:40:35.066Z,995.56
2024-04-01T13:42:20.093Z,995.67
2024-04-01T13:44:05.153Z,995.63
2024-04-01T13:45:50.115Z,995.55
2024-04-01T13:47:35.069Z,995.63
2024-04-01T13:49:20.101Z,995.66
2024-04-01T13:51:05.092Z,995.74
2024-04-01T13:52:50.118Z,995.68
2024-04-01T13:54:35.137Z,995.71
2024-04-01T13:56:20.146Z,995.71
2024-04-01T13:58:05.755Z,995.72
2024-04-01T13:59:50.073Z,995.7
2024-04-01T14:01:35.131Z,995.82
2024-04-01T14:03:20.092Z,995.81
2024-04-01T14:05:05.087Z,995.86
2024-04-01T14:06:50.120Z,995.82
2024-04-01T14:08:35.197Z,995.87
2024-04-01T14:10:20.100Z,995.95
2024-04-01T14:12:05.153Z,995.91
2024-04-01T14:13:50.172Z,995.97
2024-04-01T14:15:35.148Z,995.97
2024-04-01T14:17:20.203Z,995.9
2024-04-01T14:19:05.147Z,995.95
2024-04-01T14:20:50.147Z,995.94
2024-04-01T14:22:35.145Z,995.91
2024-04-01T14:24:20.151Z,995.89
2024-04-01T14:26:05.145Z,995.92
2024-04-01T14:27:50.179Z,996
2024-04-01T14:29:35.163Z,995.83
2024-04-01T14:31:20.145Z,995.95
2024-04-01T14:33:05.210Z,995.94
2024-04-01T14:34:50.184Z,995.87
2024-04-01T14:36:35.147Z,995.92
2024-04-01T14:38:20.169Z,995.9
2024-04-01T14:40:05.459Z,995.95
2024-04-01T14:41:50.167Z,996.07
2024-04-01T14:43:35.172Z,996.02
2024-04-01T14:45:20.779Z,995.99
2024-04-01T14:47:05.132Z,995.99
2024-04-01T14:48:50.162Z,996.05
2024-04-01T14:50:35.146Z,996
2024-04-01T14:52:20.804Z,996.06
2024-04-01T14:54:05.176Z,996.1
2024-04-01T14:55:50.222Z,995.96
2024-04-01T14:57:35.196Z,996.13
2024-04-01T14:59:20.190Z,995.99
2024-04-01T15:01:05.178Z,995.98
2024-04-01T15:02:50.174Z,996.05
2024-04-01T15:04:35.195Z,995.99
2024-04-01T15:06:20.182Z,995.95
2024-04-01T15:08:05.173Z,995.94
2024-04-01T15:09:50.177Z,996.02
2024-04-01T15:11:35.225Z,996.02
2024-04-01T15:13:20.201Z,995.95
2024-04-01T15:15:05.199Z,996.04
2024-04-01T15:16:50.215Z,996.03
2024-04-01T15:18:35.181Z,996.15
2024-04-01T15:20:20.180Z,996.04
2024-04-01T15:22:05.206Z,996.03
2024-04-01T15:23:50.230Z,996.09
2024-04-01T15:25:35.211Z,996.14
2024-04-01T15:27:20.235Z,996.14
2024-04-01T15:29:05.231Z,996.11
2024-04-01T15:30:50.232Z,996.14
2024-04-01T15:32:35.240Z,996.22
2024-04-01T15:34:20.259Z,996.27
2024-04-01T15:36:05.242Z,996.31
2024-04-01T15:37:50.246Z,996.24
2024-04-01T15:39:35.240Z,996.27
2024-04-01T15:41:20.267Z,996.3
2024-04-01T15:43:05.328Z,996.31
2024-04-01T15:44:50.250Z,996.27
2024-04-01T15:46:35.584Z,996.25
2024-04-01T15:48:20.265Z,996.28
2024-04-01T15:50:05.245Z,996.21
2024-04-01T15:51:50.266Z,996.33
2024-04-01T15:53:35.267Z,996.31
2024-04-01T15:55:20.264Z,996.26
2024-04-01T15:57:05.262Z,996.3
2024-04-01T15:58:50.255Z,996.29
2024-04-01T16:00:35.288Z,996.31
2024-04-01T16:02:20.296Z,996.31
2024-04-01T16:04:05.291Z,996.3
2024-04-01T16:05:50.271Z,996.23
2024-04-01T16:07:35.297Z,996.26
2024-04-01T16:09:20.276Z,996.23
2024-04-01T16:11:05.274Z,996.2
2024-04-01T16:12:50.300Z,996.21
2024-04-01T16:14:35.282Z,996.14
2024-04-01T16:16:20.312Z,996.18
2024-04-01T16:18:05.373Z,996.19
2024-04-01T16:19:50.319Z,996.16
2024-04-01T16:21:35.284Z,996.23
2024-04-01T16:23:20.358Z,996.28
2024-04-01T16:25:05.328Z,996.16
2024-04-01T16:26:50.303Z,996.28
2024-04-01T16:28:35.339Z,996.19
2024-04-01T16:30:20.302Z,996.18
2024-04-01T16:32:05.312Z,996.24
2024-04-01T16:33:50.355Z,996.19
2024-04-01T16:35:35.333Z,996.13
2024-04-01T16:37:20.301Z,996.27
2024-04-01T16:39:05.322Z,996.2
2024-04-01T16:40:50.335Z,996.22
2024-04-01T16:42:35.315Z,996.18
2024-04-01T16:44:20.362Z,996.24
2024-04-01T16:46:05.342Z,996.2
2024-04-01T16:47:50.348Z,996.19
2024-04-01T16:49:35.346Z,996.18
2024-04-01T16:51:20.347Z,996.2
2024-04-01T16:53:05.335Z,996.24
2024-04-01T16:54:50.344Z,996.23
2024-04-01T16:56:35.360Z,996.26
2024-04-01T16:58:20.331Z,996.24
2024-04-01T17:00:05.358Z,996.25
2024-04-01T17:01:50.693Z,996.22
2024-04-01T17:03:35.361Z,996.19
2024-04-01T17:05:20.653Z,996.22
2024-04-01T17:07:05.376Z,996.34
2024-04-01T17:08:50.351Z,996.26
2024-04-01T17:10:35.354Z,996.24
2024-04-01T17:12:20.390Z,996.25
2024-04-01T17:14:05.381Z,996.22
2024-04-01T17:15:50.392Z,996.26
2024-04-01T17:17:35.357Z,996.25
2024-04-01T17:19:20.427Z,996.25
2024-04-01T17:21:05.419Z,996.34
2024-04-01T17:22:50.393Z,996.31
2024-04-01T17:24:35.413Z,996.41
2024-04-01T17:26:20.427Z,996.28
2024-04-01T17:28:05.370Z,996.36
2024-04-01T17:29:50.442Z,996.41
2024-04-01T17:31:35.389Z,996.39
2024-04-01T17:33:20.382Z,996.29
2024-04-01T17:35:05.575Z,996.4
2024-04-01T17:36:51.142Z,996.39
2024-04-01T17:38:38.267Z,996.4
2024-04-01T17:40:20.557Z,996.42
2024-04-01T17:42:05.675Z,996.46
2024-04-01T17:43:50.958Z,996.47
2024-04-01T17:45:35.574Z,996.47
2024-04-01T17:47:20.472Z,996.46
2024-04-01T17:49:05.526Z,996.49
2024-04-01T17:50:50.561Z,996.47
2024-04-01T17:52:35.696Z,996.52
2024-04-01T17:54:20.653Z,996.55
2024-04-01T17:56:05.543Z,996.56
2024-04-01T17:57:50.669Z,996.45
2024-04-01T17:59:35.525Z,996.5
2024-04-01T18:01:20.452Z,996.44
2024-04-01T18:03:05.631Z,996.45
2024-04-01T18:04:50.567Z,996.51
2024-04-01T18:06:35.589Z,996.56
2024-04-01T18:08:20.461Z,996.47
2024-04-01T18:10:05.441Z,996.54
2024-04-01T18:11:50.445Z,996.68
2024-04-01T18:13:35.454Z,996.63
2024-04-01T18:15:20.453Z,996.6
2024-04-01T18:17:05.463Z,996.7
2024-04-01T18:18:50.511Z,996.7
2024-04-01T18:20:35.482Z,996.75
2024-04-01T18:22:20.495Z,996.72
2024-04-01T18:24:05.488Z,996.83
2024-04-01T18:25:50.469Z,996.86
2024-04-01T18:27:35.804Z,996.73
2024-04-01T18:29:20.508Z,996.84
2024-04-01T18:31:05.481Z,996.85
2024-04-01T18:32:50.552Z,996.79
2024-04-01T18:34:35.541Z,996.86
2024-04-01T18:36:20.476Z,996.91
2024-04-01T18:38:05.525Z,996.98
2024-04-01T18:39:50.560Z,996.95
2024-04-01T18:41:35.508Z,996.94
2024-04-01T18:43:20.494Z,997.04
2024-04-01T18:45:05.503Z,996.98
2024-04-01T18:46:50.517Z,997.14
2024-04-01T18:48:35.519Z,997.06
2024-04-01T18:50:20.519Z,997.07
2024-04-01T18:52:05.527Z,997.22
2024-04-01T18:53:50.536Z,997.18
2024-04-01T18:55:35.522Z,997.28
2024-04-01T18:57:20.540Z,997.18
2024-04-01T18:59:05.539Z,997.24
2024-04-01T19:00:50.536Z,997.29
2024-04-01T19:02:35.545Z,997.28
2024-04-01T19:04:20.538Z,997.25
2024-04-01T19:06:05.570Z,997.37
2024-04-01T19:07:50.538Z,997.35
2024-04-01T19:09:35.571Z,997.46
2024-04-01T19:11:20.572Z,997.39
2024-04-01T19:13:05.856Z,997.42
2024-04-01T19:14:50.541Z,997.37
2024-04-01T19:16:35.560Z,997.41
2024-04-01T19:18:20.545Z,997.46
2024-04-01T19:20:05.599Z,997.49
2024-04-01T19:21:50.642Z,997.55
2024-04-01T19:23:35.565Z,997.58
2024-04-01T19:25:20.637Z,997.5
2024-04-01T19:27:05.659Z,997.49
2024-04-01T19:28:50.611Z,997.57
2024-04-01T19:30:35.875Z,997.43
2024-04-01T19:32:20.561Z,997.54
2024-04-01T19:34:05.595Z,997.59
2024-04-01T19:35:50.567Z,997.48
2024-04-01T19:37:35.578Z,997.57
2024-04-01T19:39:20.583Z,997.51
2024-04-01T19:41:05.580Z,997.59
2024-04-01T19:42:50.569Z,997.66
2024-04-01T19:44:35.618Z,997.68
2024-04-01T19:46:20.571Z,997.68
2024-04-01T19:48:05.584Z,997.62
2024-04-01T19:49:50.596Z,997.67
2024-04-01T19:51:35.629Z,997.72
2024-04-01T19:53:20.616Z,997.68
2024-04-01T19:55:05.586Z,997.69
2024-04-01T19:56:50.641Z,997.75
2024-04-01T19:58:35.605Z,997.75
2024-04-01T20:00:20.620Z,997.75
2024-04-01T20:02:05.626Z,997.76
2024-04-01T20:03:50.633Z,997.85
2024-04-01T20:05:35.618Z,997.78
2024-04-01T20:07:20.635Z,997.86
2024-04-01T20:09:05.610Z,997.84
2024-04-01T20:10:50.652Z,997.82
2024-04-01T20:12:35.641Z,997.84
2024-04-01T20:14:20.695Z,997.85
2024-04-01T20:16:05.932Z,997.79
2024-04-01T20:17:50.668Z,997.85
2024-04-01T20:19:36.301Z,997.76
2024-04-01T20:21:20.642Z,997.8
2024-04-01T20:23:05.674Z,997.84
2024-04-01T20:24:50.657Z,997.84
2024-04-01T20:26:35.642Z,997.85
2024-04-01T20:28:20.685Z,997.84
2024-04-01T20:30:05.703Z,997.86
2024-04-01T20:31:50.670Z,997.94
2024-04-01T20:33:35.673Z,997.88
2024-04-01T20:35:20.700Z,997.94
2024-04-01T20:37:05.649Z,997.88
2024-04-01T20:38:50.666Z,997.94
2024-04-01T20:40:35.692Z,997.93
2024-04-01T20:42:20.681Z,997.98
2024-04-01T20:44:05.838Z,997.91
2024-04-01T20:45:50.713Z,998.08
2024-04-01T20:47:36.317Z,997.96
2024-04-01T20:49:20.691Z,998.05
2024-04-01T20:51:05.728Z,998.05
2024-04-01T20:54:36.266Z,998.13
2024-04-01T20:56:20.712Z,998.06
2024-04-01T20:58:05.713Z,998.08
2024-04-01T20:59:50.742Z,998.09
2024-04-01T21:01:35.714Z,998.17
2024-04-01T21:03:20.721Z,998.11
2024-04-01T21:05:05.713Z,998.12
2024-04-01T21:06:50.738Z,998.13
2024-04-01T21:08:35.743Z,998.12
2024-04-01T21:10:24.149Z,998.17
2024-04-01T21:12:05.716Z,998.2
2024-04-01T21:13:50.746Z,998.21
2024-04-01T21:15:35.763Z,998.09
2024-04-01T21:17:20.719Z,998.04
2024-04-01T21:19:05.704Z,998.23
2024-04-01T21:20:50.732Z,998.3
2024-04-01T21:22:35.720Z,998.22
2024-04-01T21:24:20.747Z,998.28
2024-04-01T21:26:05.766Z,998.24
2024-04-01T21:27:50.748Z,998.26
2024-04-01T21:29:35.732Z,998.33
2024-04-01T21:31:20.784Z,998.33
2024-04-01T21:33:05.798Z,998.39
2024-04-01T21:34:50.754Z,998.44
2024-04-01T21:36:35.760Z,998.34
2024-04-01T21:38:20.815Z,998.38
2024-04-01T21:40:05.753Z,998.49
2024-04-01T21:41:50.763Z,998.52
2024-04-01T21:43:35.768Z,998.51
2024-04-01T21:45:20.751Z,998.48
2024-04-01T21:47:05.773Z,998.4
2024-04-01T21:48:58.181Z,998.47
2024-04-01T21:50:35.792Z,998.53
2024-04-01T21:52:20.758Z,998.56
2024-04-01T21:54:05.766Z,998.54
2024-04-01T21:55:50.828Z,998.5
2024-04-01T21:57:35.765Z,998.55